createdAt,value
2023-04-07T00:01:25.687Z,9.40
2023-04-07T00:03:52.798Z,11.63
2023-04-07T00:06:19.749Z,8.90
2023-04-07T00:08:46.609Z,8.75
2023-04-07T00:11:13.451Z,10.88
2023-04-07T00:13:40.185Z,10.55
2023-04-07T00:16:07.328Z,10.02
2023-04-07T00:18:34.141Z,10.38
2023-04-07T00:21:00.946Z,10.05
2023-04-07T00:23:27.842Z,11.93
2023-04-07T00:25:54.576Z,11.50
2023-04-07T00:28:21.415Z,11.88
2023-04-07T00:30:48.207Z,10.38
2023-04-07T00:33:15.101Z,10.27
2023-04-07T00:35:41.939Z,12.52
2023-04-07T00:38:08.863Z,9.32
2023-04-07T00:40:35.745Z,8.85
2023-04-07T00:43:02.536Z,11.52
2023-04-07T00:45:29.438Z,11.23
2023-04-07T00:47:58.478Z,7.82
2023-04-07T00:50:25.588Z,12.50
2023-04-07T00:52:55.059Z,10.20
2023-04-07T00:55:21.830Z,8.55
2023-04-07T00:57:48.767Z,10.63
2023-04-07T01:00:15.796Z,9.95
2023-04-07T01:02:52.200Z,11.50
2023-04-07T01:05:42.483Z,9.95
2023-04-07T01:08:29.616Z,8.13
2023-04-07T01:11:17.349Z,10.25
2023-04-07T01:16:35.885Z,12.00
2023-04-07T01:19:14.264Z,9.15
2023-04-07T01:24:22.179Z,9.52
2023-04-07T01:26:50.583Z,8.95
2023-04-07T01:29:37.193Z,8.65
2023-04-07T01:32:06.558Z,9.85
2023-04-07T01:34:34.246Z,9.55
2023-04-07T01:37:02.825Z,8.60
2023-04-07T01:39:30.069Z,12.23
2023-04-07T01:41:58.518Z,8.93
2023-04-07T01:44:27.548Z,9.18
2023-04-07T01:46:55.640Z,9.75
2023-04-07T01:49:23.484Z,8.60
2023-04-07T01:51:51.426Z,9.52
2023-04-07T01:54:18.931Z,8.90
2023-04-07T01:56:46.010Z,8.52
2023-04-07T01:59:13.314Z,10.75
2023-04-07T02:01:40.613Z,6.78
2023-04-07T02:04:32.522Z,9.75
2023-04-07T02:07:09.651Z,11.85
2023-04-07T02:09:40.872Z,9.73
2023-04-07T02:12:11.661Z,8.32
2023-04-07T02:14:38.772Z,8.55
2023-04-07T02:17:06.344Z,9.85
2023-04-07T02:19:35.931Z,8.63
2023-04-07T02:22:04.790Z,6.95
2023-04-07T02:24:31.454Z,9.18
2023-04-07T02:26:58.622Z,11.32
2023-04-07T02:29:25.514Z,8.95
2023-04-07T02:31:52.212Z,8.77
2023-04-07T02:34:18.958Z,9.45
2023-04-07T02:36:45.648Z,12.32
2023-04-07T02:39:12.424Z,7.95
2023-04-07T02:41:39.083Z,9.57
2023-04-07T02:44:05.894Z,9.23
2023-04-07T02:46:32.605Z,7.57
2023-04-07T02:48:59.335Z,10.85
2023-04-07T02:51:27.047Z,9.98
2023-04-07T02:53:53.974Z,8.52
2023-04-07T02:56:20.893Z,7.85
2023-04-07T02:58:47.571Z,7.50
2023-04-07T03:01:14.327Z,7.65
2023-04-07T03:03:42.497Z,9.85
2023-04-07T03:06:09.294Z,7.55
2023-04-07T03:08:36.034Z,8.30
2023-04-07T03:11:02.726Z,5.88
2023-04-07T03:13:30.849Z,10.23
2023-04-07T03:15:58.170Z,9.38
2023-04-07T03:18:24.920Z,7.68
2023-04-07T03:20:53.007Z,7.50
2023-04-07T03:23:19.852Z,12.20
2023-04-07T03:25:47.556Z,7.50
2023-04-07T03:28:15.632Z,7.93
2023-04-07T03:30:42.480Z,10.43
2023-04-07T03:33:09.451Z,9.73
2023-04-07T03:35:36.586Z,8.82
2023-04-07T03:38:03.508Z,7.43
2023-04-07T03:40:30.318Z,8.48
2023-04-07T03:42:57.046Z,6.35
2023-04-07T03:45:23.819Z,6.45
2023-04-07T03:47:51.449Z,5.40
2023-04-07T03:50:18.384Z,7.63
2023-04-07T03:52:45.274Z,8.00
2023-04-07T03:55:12.167Z,6.90
2023-04-07T03:57:38.994Z,7.22
2023-04-07T04:00:06.389Z,7.60
2023-04-07T04:02:33.357Z,5.97
2023-04-07T04:05:00.257Z,7.10
2023-04-07T04:07:27.024Z,6.57
2023-04-07T04:09:53.739Z,6.32
2023-04-07T04:12:20.590Z,5.72
2023-04-07T04:14:47.331Z,6.70
2023-04-07T04:17:14.072Z,6.85
2023-04-07T04:19:40.775Z,6.40
2023-04-07T04:22:07.757Z,5.10
2023-04-07T04:24:34.593Z,5.47
2023-04-07T04:27:01.935Z,7.82
2023-04-07T04:29:29.044Z,5.45
2023-04-07T04:31:56.484Z,5.72
2023-04-07T04:34:23.338Z,5.30
2023-04-07T04:36:50.451Z,9.18
2023-04-07T04:39:17.200Z,7.22
2023-04-07T04:41:44.923Z,9.68
2023-04-07T04:44:12.344Z,7.97
2023-04-07T04:46:39.328Z,9.07
2023-04-07T04:49:06.482Z,7.55
2023-04-07T04:51:33.380Z,6.93
2023-04-07T04:54:00.620Z,5.53
2023-04-07T04:56:27.465Z,5.05
2023-04-07T04:58:54.285Z,4.20
2023-04-07T05:01:21.084Z,9.02
2023-04-07T05:03:48.033Z,5.97
2023-04-07T05:06:14.895Z,5.32
2023-04-07T05:08:41.787Z,5.05
2023-04-07T05:11:12.720Z,7.28
2023-04-07T05:13:39.480Z,6.57
2023-04-07T05:16:06.750Z,4.63
2023-04-07T05:18:33.504Z,5.45
2023-04-07T05:21:02.309Z,4.25
2023-04-07T05:23:29.576Z,7.13
2023-04-07T05:25:56.433Z,7.20
2023-04-07T05:28:23.282Z,6.43
2023-04-07T05:30:50.443Z,8.35
2023-04-07T05:33:17.225Z,7.22
2023-04-07T05:35:47.169Z,5.90
2023-04-07T05:38:14.621Z,6.03
2023-04-07T05:40:41.382Z,5.40
2023-04-07T05:43:08.247Z,5.43
2023-04-07T05:45:35.120Z,6.63
2023-04-07T05:48:02.052Z,4.45
2023-04-07T05:50:28.948Z,5.15
2023-04-07T05:52:56.284Z,7.63
2023-04-07T05:55:23.102Z,6.90
2023-04-07T05:57:50.023Z,6.50
2023-04-07T06:00:17.212Z,4.53
2023-04-07T06:02:44.090Z,4.90
2023-04-07T06:05:11.223Z,5.57
2023-04-07T06:07:38.036Z,7.30
2023-04-07T06:10:05.332Z,6.60
2023-04-07T06:12:32.245Z,7.55
2023-04-07T06:14:58.977Z,5.05
2023-04-07T06:17:25.864Z,3.67
2023-04-07T06:19:52.607Z,5.60
2023-04-07T06:22:19.371Z,5.45
2023-04-07T06:24:46.240Z,4.53
2023-04-07T06:27:13.245Z,5.47
2023-04-07T06:29:40.122Z,5.10
2023-04-07T06:32:06.817Z,7.53
2023-04-07T06:34:33.689Z,5.95
2023-04-07T06:37:01.716Z,4.28
2023-04-07T06:39:29.910Z,4.45
2023-04-07T06:41:57.207Z,4.75
2023-04-07T06:44:24.305Z,5.22
2023-04-07T06:46:53.519Z,4.70
2023-04-07T06:49:20.663Z,4.93
2023-04-07T06:51:47.443Z,5.13
2023-04-07T06:54:14.883Z,8.50
2023-04-07T06:56:43.227Z,5.97
2023-04-07T06:59:10.594Z,4.50
2023-04-07T07:01:37.943Z,4.93
2023-04-07T07:04:06.342Z,4.65
2023-04-07T07:06:33.182Z,6.07
2023-04-07T07:09:00.758Z,3.92
2023-04-07T07:11:27.835Z,4.63
2023-04-07T07:13:54.944Z,3.90
2023-04-07T07:16:24.092Z,3.65
2023-04-07T07:18:51.444Z,5.43
2023-04-07T07:21:19.303Z,4.57
2023-04-07T07:23:46.838Z,4.20
2023-04-07T07:26:14.071Z,3.92
2023-04-07T07:28:40.981Z,3.33
2023-04-07T07:31:13.318Z,3.83
2023-04-07T07:33:41.379Z,3.13
2023-04-07T07:36:08.648Z,3.92
2023-04-07T07:38:37.695Z,2.97
2023-04-07T07:41:06.360Z,3.65
2023-04-07T07:43:33.557Z,5.00
2023-04-07T07:46:00.402Z,4.30
2023-04-07T07:48:27.213Z,2.97
2023-04-07T07:50:56.910Z,4.97
2023-04-07T07:53:24.142Z,3.78
2023-04-07T07:55:51.166Z,3.53
2023-04-07T07:58:18.071Z,3.95
2023-04-07T08:00:44.972Z,3.53
2023-04-07T08:03:12.013Z,4.40
2023-04-07T08:05:38.930Z,4.43
2023-04-07T08:08:05.881Z,4.13
2023-04-07T08:10:32.574Z,2.90
2023-04-07T08:12:59.523Z,4.32
2023-04-07T08:15:26.585Z,3.80
2023-04-07T08:17:54.795Z,3.90
2023-04-07T08:20:23.728Z,4.18
2023-04-07T08:22:50.821Z,2.50
2023-04-07T08:25:17.770Z,3.90
2023-04-07T08:27:44.565Z,4.07
2023-04-07T08:30:11.413Z,3.20
2023-04-07T08:32:40.901Z,2.50
2023-04-07T08:35:08.348Z,4.10
2023-04-07T08:37:36.285Z,2.97
2023-04-07T08:40:04.120Z,6.75
2023-04-07T08:42:33.496Z,3.00
2023-04-07T08:45:06.003Z,3.33
2023-04-07T08:47:34.749Z,3.15
2023-04-07T08:50:06.742Z,3.85
2023-04-07T08:52:48.422Z,4.57
2023-04-07T08:55:15.478Z,5.40
2023-04-07T08:57:43.189Z,4.78
2023-04-07T09:00:10.775Z,4.78
2023-04-07T09:02:47.775Z,4.95
2023-04-07T09:05:15.400Z,5.28
2023-04-07T09:07:43.476Z,4.93
2023-04-07T09:10:11.139Z,4.72
2023-04-07T09:12:38.520Z,6.45
2023-04-07T09:15:08.817Z,7.45
2023-04-07T09:17:35.821Z,8.07
2023-04-07T09:20:04.206Z,4.97
2023-04-07T09:22:38.664Z,8.27
2023-04-07T09:25:13.025Z,9.75
2023-04-07T09:27:39.862Z,5.25
2023-04-07T09:30:15.756Z,5.97
2023-04-07T09:32:42.786Z,5.10
2023-04-07T09:35:10.018Z,4.70
2023-04-07T09:37:38.130Z,6.18
2023-04-07T09:40:05.473Z,5.65
2023-04-07T09:42:36.016Z,6.45
2023-04-07T09:45:03.477Z,6.65
2023-04-07T09:47:32.701Z,5.43
2023-04-07T09:50:06.477Z,6.18
2023-04-07T09:52:49.951Z,5.25
2023-04-07T09:55:18.408Z,6.88
2023-04-07T09:57:45.694Z,6.85
2023-04-07T10:00:13.816Z,6.60
2023-04-07T10:02:41.722Z,4.60
2023-04-07T10:05:09.204Z,5.30
2023-04-07T10:07:36.526Z,6.75
2023-04-07T10:10:04.837Z,4.72
2023-04-07T10:12:34.720Z,6.80
2023-04-07T10:15:02.282Z,4.95
2023-04-07T10:17:29.455Z,6.03
2023-04-07T10:19:58.801Z,5.68
2023-04-07T10:22:27.859Z,5.45
2023-04-07T10:25:02.776Z,7.03
2023-04-07T10:27:37.087Z,6.70
2023-04-07T10:30:07.336Z,6.18
2023-04-07T10:32:46.873Z,7.57
2023-04-07T10:35:13.751Z,9.93
2023-04-07T10:37:40.669Z,4.70
2023-04-07T10:40:20.103Z,8.73
2023-04-07T10:42:50.815Z,5.82
2023-04-07T10:45:31.810Z,6.50
2023-04-07T10:47:58.836Z,6.10
2023-04-07T10:50:26.676Z,5.28
2023-04-07T10:53:10.716Z,6.88
2023-04-07T10:55:42.049Z,5.85
2023-04-07T10:58:33.355Z,6.32
2023-04-07T11:01:00.516Z,6.28
2023-04-07T11:03:29.831Z,7.70
2023-04-07T11:06:23.228Z,6.97
2023-04-07T11:08:51.138Z,7.93
2023-04-07T11:11:36.104Z,6.95
2023-04-07T11:14:03.199Z,6.70
2023-04-07T11:16:38.593Z,6.35
2023-04-07T11:19:05.412Z,5.70
2023-04-07T11:21:32.482Z,5.22
2023-04-07T11:23:59.282Z,6.50
2023-04-07T11:26:26.069Z,5.95
2023-04-07T11:28:54.843Z,6.60
2023-04-07T11:31:26.411Z,4.55
2023-04-07T11:33:55.368Z,6.57
2023-04-07T11:36:29.087Z,6.63
2023-04-07T11:38:57.636Z,5.05
2023-04-07T11:41:27.304Z,6.50
2023-04-07T11:44:11.302Z,6.82
2023-04-07T11:46:54.098Z,7.15
2023-04-07T11:49:21.397Z,5.32
2023-04-07T11:51:48.191Z,5.72
2023-04-07T11:54:16.089Z,6.70
2023-04-07T11:56:48.192Z,7.10
2023-04-07T11:59:23.270Z,6.30
2023-04-07T12:01:52.358Z,5.25
2023-04-07T12:04:20.494Z,5.00
2023-04-07T12:06:49.134Z,6.22
2023-04-07T12:09:29.652Z,6.13
2023-04-07T12:11:57.936Z,5.57
2023-04-07T12:14:26.403Z,8.15
2023-04-07T12:16:56.517Z,6.68
2023-04-07T12:19:25.832Z,6.68
2023-04-07T12:21:52.731Z,6.70
2023-04-07T12:24:19.768Z,5.45
2023-04-07T12:26:48.009Z,6.10
2023-04-07T12:29:15.051Z,5.93
2023-04-07T12:31:42.535Z,7.05
2023-04-07T12:34:09.591Z,6.50
2023-04-07T12:36:36.380Z,8.25
2023-04-07T12:39:03.317Z,6.07
2023-04-07T12:41:30.128Z,7.30
2023-04-07T12:43:56.957Z,5.30
2023-04-07T12:46:23.955Z,6.25
2023-04-07T12:48:51.542Z,6.82
2023-04-07T12:51:18.487Z,5.50
2023-04-07T12:53:45.371Z,6.10
2023-04-07T12:56:13.179Z,8.18
2023-04-07T12:58:42.976Z,5.97
2023-04-07T13:01:09.987Z,5.93
2023-04-07T13:03:37.392Z,5.57
2023-04-07T13:06:04.865Z,5.38
2023-04-07T13:08:32.355Z,7.32
2023-04-07T13:10:59.638Z,7.55
2023-04-07T13:13:26.547Z,7.97
2023-04-07T13:15:53.644Z,7.00
2023-04-07T13:18:20.606Z,5.93
2023-04-07T13:20:54.902Z,5.90
2023-04-07T13:23:42.170Z,6.85
2023-04-07T13:26:12.411Z,7.47
2023-04-07T13:28:39.859Z,7.25
2023-04-07T13:31:07.557Z,12.43
2023-04-07T13:33:35.112Z,6.00
2023-04-07T13:36:02.241Z,8.38
2023-04-07T13:38:29.011Z,7.65
2023-04-07T13:40:56.165Z,7.50
2023-04-07T13:43:22.919Z,7.88
2023-04-07T13:45:50.651Z,9.90
2023-04-07T13:48:17.501Z,9.38
2023-04-07T13:50:44.320Z,9.68
2023-04-07T13:53:11.187Z,10.70
2023-04-07T13:55:38.977Z,8.93
2023-04-07T13:58:05.688Z,12.43
2023-04-07T14:00:32.494Z,11.52
2023-04-07T14:02:59.456Z,10.57
2023-04-07T14:05:27.410Z,12.43
2023-04-07T14:07:54.472Z,12.73
2023-04-07T14:10:21.741Z,12.00
2023-04-07T14:12:48.529Z,10.43
2023-04-07T14:15:17.718Z,10.93
2023-04-07T14:17:45.424Z,11.75
2023-04-07T14:20:12.325Z,12.90
2023-04-07T14:22:39.134Z,13.70
2023-04-07T14:25:06.524Z,12.77
2023-04-07T14:27:33.451Z,13.98
2023-04-07T14:30:00.331Z,10.80
2023-04-07T14:32:29.859Z,11.80
2023-04-07T14:34:59.047Z,10.90
2023-04-07T14:37:26.706Z,9.18
2023-04-07T14:40:02.407Z,9.50
2023-04-07T14:42:30.818Z,10.63
2023-04-07T14:45:00.418Z,9.80
2023-04-07T14:47:27.789Z,11.25
2023-04-07T14:49:57.840Z,11.30
2023-04-07T14:52:24.755Z,12.18
2023-04-07T14:54:51.652Z,12.55
2023-04-07T14:57:18.712Z,10.65
2023-04-07T14:59:45.530Z,10.55
2023-04-07T15:02:12.595Z,10.30
2023-04-07T15:04:39.668Z,9.23
2023-04-07T15:07:06.841Z,10.63
2023-04-07T15:09:33.825Z,9.15
2023-04-07T15:12:00.963Z,9.88
2023-04-07T15:14:28.524Z,8.90
2023-04-07T15:16:55.528Z,9.68
2023-04-07T15:19:22.313Z,9.77
2023-04-07T15:21:49.167Z,7.60
2023-04-07T15:24:16.577Z,8.75
2023-04-07T15:26:43.660Z,7.20
2023-04-07T15:29:10.411Z,10.30
2023-04-07T15:31:37.282Z,12.23
2023-04-07T15:34:04.077Z,6.85
2023-04-07T15:36:31.812Z,7.63
2023-04-07T15:39:06.915Z,8.35
2023-04-07T15:41:34.271Z,8.45
2023-04-07T15:44:04.412Z,7.63
2023-04-07T15:46:34.114Z,6.72
2023-04-07T15:49:01.790Z,8.30
2023-04-07T15:51:31.166Z,8.35
2023-04-07T15:53:59.993Z,8.15
2023-04-07T15:56:27.650Z,7.38
2023-04-07T15:58:54.367Z,7.82
2023-04-07T16:01:21.816Z,7.10
2023-04-07T16:03:48.763Z,6.00
2023-04-07T16:06:15.922Z,7.47
2023-04-07T16:08:42.675Z,5.70
2023-04-07T16:11:09.613Z,6.22
2023-04-07T16:13:36.599Z,6.03
2023-04-07T16:16:03.615Z,6.07
2023-04-07T16:18:31.347Z,5.63
2023-04-07T16:20:58.212Z,8.32
2023-04-07T16:23:25.449Z,7.85
2023-04-07T16:25:52.367Z,6.30
2023-04-07T16:28:19.501Z,6.28
2023-04-07T16:30:46.572Z,8.95
2023-04-07T16:33:13.496Z,7.90
2023-04-07T16:35:41.544Z,7.03
2023-04-07T16:38:08.880Z,6.18
2023-04-07T16:40:36.865Z,8.00
2023-04-07T16:43:03.771Z,6.80
2023-04-07T16:45:30.619Z,7.70
2023-04-07T16:47:58.634Z,8.45
2023-04-07T16:50:26.409Z,7.80
2023-04-07T16:52:55.144Z,8.40
2023-04-07T16:55:22.693Z,8.40
2023-04-07T16:57:50.676Z,10.23
2023-04-07T17:00:19.586Z,8.63
2023-04-07T17:02:46.632Z,8.93
2023-04-07T17:05:14.530Z,7.45
2023-04-07T17:07:42.887Z,10.07
2023-04-07T17:10:10.169Z,9.52
2023-04-07T17:12:38.414Z,10.70
2023-04-07T17:15:06.045Z,10.57
2023-04-07T17:17:33.642Z,11.07
2023-04-07T17:20:00.700Z,12.35
2023-04-07T17:22:28.191Z,11.73
2023-04-07T17:24:55.069Z,11.57
2023-04-07T17:27:21.976Z,11.82
2023-04-07T17:29:48.720Z,13.38
2023-04-07T17:32:15.877Z,11.55
2023-04-07T17:34:42.818Z,11.52
2023-04-07T17:37:09.706Z,11.13
2023-04-07T17:39:36.504Z,10.88
2023-04-07T17:42:03.293Z,12.73
2023-04-07T17:44:31.018Z,10.57
2023-04-07T17:46:57.983Z,12.20
2023-04-07T17:49:26.553Z,13.05
2023-04-07T17:51:54.163Z,13.70
2023-04-07T17:54:21.340Z,10.45
2023-04-07T17:56:48.127Z,12.57
2023-04-07T17:59:14.877Z,12.93
2023-04-07T18:01:41.757Z,10.85
2023-04-07T18:04:08.654Z,13.98
2023-04-07T18:06:35.436Z,13.40
2023-04-07T18:09:04.158Z,13.18
2023-04-07T18:11:32.389Z,12.18
2023-04-07T18:13:59.192Z,13.70
2023-04-07T18:16:25.936Z,11.50
2023-04-07T18:18:52.963Z,11.40
2023-04-07T18:21:19.753Z,10.27
2023-04-07T18:23:46.617Z,11.27
2023-04-07T18:26:13.582Z,11.48
2023-04-07T18:28:40.387Z,13.40
2023-04-07T18:31:08.237Z,11.77
2023-04-07T18:33:36.422Z,14.00
2023-04-07T18:36:06.587Z,14.73
2023-04-07T18:38:38.128Z,11.95
2023-04-07T18:41:06.927Z,14.40
2023-04-07T18:43:33.979Z,18.70
2023-04-07T18:46:00.764Z,14.13
2023-04-07T18:48:28.417Z,12.23
2023-04-07T18:50:56.626Z,12.48
2023-04-07T18:53:25.052Z,14.23
2023-04-07T18:55:51.966Z,13.18
2023-04-07T18:58:19.910Z,13.23
2023-04-07T19:00:49.415Z,12.93
2023-04-07T19:03:16.700Z,11.82
2023-04-07T19:05:47.296Z,14.02
2023-04-07T19:08:16.165Z,12.65
2023-04-07T19:10:43.563Z,14.13
2023-04-07T19:13:10.679Z,16.85
2023-04-07T19:15:39.394Z,11.00
2023-04-07T19:18:08.362Z,14.38
2023-04-07T19:20:35.437Z,13.88
2023-04-07T19:23:02.626Z,16.88
2023-04-07T19:25:30.650Z,16.35
2023-04-07T19:27:58.061Z,15.10
2023-04-07T19:30:25.007Z,13.77
2023-04-07T19:32:52.436Z,18.02
2023-04-07T19:35:19.359Z,15.32
2023-04-07T19:37:47.493Z,16.25
2023-04-07T19:40:15.003Z,17.13
2023-04-07T19:42:41.785Z,16.88
2023-04-07T19:45:09.413Z,14.95
2023-04-07T19:47:36.733Z,17.27
2023-04-07T19:50:05.205Z,15.32
2023-04-07T19:52:32.642Z,17.63
2023-04-07T19:55:00.927Z,16.63
2023-04-07T19:57:28.521Z,15.55
2023-04-07T19:59:55.299Z,17.02
2023-04-07T20:02:22.266Z,17.77
2023-04-07T20:04:49.148Z,17.08
2023-04-07T20:07:15.928Z,21.00
2023-04-07T20:09:42.916Z,15.65
2023-04-07T20:12:09.788Z,17.13
2023-04-07T20:14:37.724Z,16.02
2023-04-07T20:17:04.879Z,16.42
2023-04-07T20:19:31.920Z,19.13
2023-04-07T20:21:58.886Z,18.45
2023-04-07T20:24:26.033Z,16.35
2023-04-07T20:26:52.852Z,16.27
2023-04-07T20:29:22.076Z,17.15
2023-04-07T20:31:49.384Z,19.20
2023-04-07T20:34:16.661Z,17.98
2023-04-07T20:36:43.905Z,18.40
2023-04-07T20:39:10.728Z,15.88
2023-04-07T20:41:38.642Z,18.15
2023-04-07T20:44:05.624Z,16.55
2023-04-07T20:46:33.777Z,17.25
2023-04-07T20:49:01.071Z,16.20
2023-04-07T20:51:28.995Z,17.90
2023-04-07T20:53:56.001Z,17.20
2023-04-07T20:56:23.844Z,18.08
2023-04-07T20:58:50.926Z,19.42
2023-04-07T21:01:18.251Z,18.20
2023-04-07T21:03:46.035Z,17.77
2023-04-07T21:06:13.178Z,18.17
2023-04-07T21:08:40.180Z,20.80
2023-04-07T21:11:07.118Z,16.40
2023-04-07T21:13:34.035Z,17.10
2023-04-07T21:16:03.285Z,18.77
2023-04-07T21:18:30.881Z,16.00
2023-04-07T21:20:59.956Z,15.73
2023-04-07T21:23:26.803Z,16.00
2023-04-07T21:25:53.766Z,14.43
2023-04-07T21:28:21.003Z,17.20
2023-04-07T21:30:48.046Z,18.00
2023-04-07T21:33:15.426Z,16.45
2023-04-07T21:35:42.433Z,17.08
2023-04-07T21:38:09.397Z,13.65
2023-04-07T21:40:36.096Z,16.13
2023-04-07T21:43:02.951Z,17.90
2023-04-07T21:45:29.801Z,16.15
2023-04-07T21:47:56.736Z,13.18
2023-04-07T21:50:24.122Z,12.73
2023-04-07T21:52:51.733Z,12.82
2023-04-07T21:55:19.100Z,14.73
2023-04-07T21:57:46.737Z,15.43
2023-04-07T22:00:14.280Z,15.73
2023-04-07T22:02:41.431Z,12.90
2023-04-07T22:05:08.926Z,13.13
2023-04-07T22:07:36.170Z,12.93
2023-04-07T22:10:03.816Z,13.77
2023-04-07T22:12:31.490Z,14.15
2023-04-07T22:14:58.305Z,17.33
2023-04-07T22:17:25.539Z,16.00
2023-04-07T22:19:52.421Z,15.63
2023-04-07T22:22:19.334Z,14.30
2023-04-07T22:24:46.245Z,14.02
2023-04-07T22:27:13.087Z,14.50
2023-04-07T22:29:39.830Z,16.38
2023-04-07T22:32:06.740Z,14.85
2023-04-07T22:34:33.535Z,18.50
2023-04-07T22:37:00.592Z,16.27
2023-04-07T22:39:27.380Z,18.75
2023-04-07T22:41:54.177Z,21.05
2023-04-07T22:44:20.850Z,15.23
2023-04-07T22:46:47.797Z,16.35
2023-04-07T22:49:14.681Z,17.48
2023-04-07T22:51:41.410Z,15.90
2023-04-07T22:54:08.209Z,15.73
2023-04-07T22:56:35.328Z,17.35
2023-04-07T22:59:05.631Z,19.30
2023-04-07T23:01:33.083Z,16.90
2023-04-07T23:04:00.183Z,17.80
2023-04-07T23:06:28.685Z,17.42
2023-04-07T23:08:56.021Z,18.77
2023-04-07T23:11:23.315Z,17.23
2023-04-07T23:13:50.199Z,23.58
2023-04-07T23:16:16.972Z,21.25
2023-04-07T23:18:43.896Z,19.42
2023-04-07T23:21:11.340Z,20.90
2023-04-07T23:23:39.230Z,24.65
2023-04-07T23:26:08.682Z,20.67
2023-04-07T23:28:35.546Z,21.92
2023-04-07T23:31:02.330Z,22.50
2023-04-07T23:33:31.590Z,22.90
2023-04-07T23:35:59.021Z,20.27
2023-04-07T23:38:28.421Z,19.52
2023-04-07T23:40:55.837Z,21.48
2023-04-07T23:43:22.566Z,21.80
2023-04-07T23:45:49.663Z,21.58
2023-04-07T23:48:16.491Z,19.73
2023-04-07T23:50:43.869Z,19.85
2023-04-07T23:53:10.597Z,22.63
2023-04-07T23:55:37.488Z,23.83
2023-04-07T23:58:04.236Z,21.70
